createdAt,value
2019-05-17T00:00:08.971Z,9
2019-05-17T00:01:09.053Z,9
2019-05-17T00:02:09.063Z,8.9
2019-05-17T00:03:09.192Z,8.8
2019-05-17T00:04:10.119Z,9
2019-05-17T00:05:09.210Z,9
2019-05-17T00:06:09.262Z,9
2019-05-17T00:07:09.288Z,9.1
2019-05-17T00:08:09.279Z,9
2019-05-17T00:09:09.335Z,8.9
2019-05-17T00:10:09.439Z,8.8
2019-05-17T00:11:09.527Z,8.6
2019-05-17T00:12:09.745Z,8.7
2019-05-17T00:13:14.117Z,8.8
2019-05-17T00:14:09.678Z,8.8
2019-05-17T00:15:09.754Z,8.8
2019-05-17T00:16:09.848Z,8.9
2019-05-17T00:17:09.853Z,8.9
2019-05-17T00:18:09.908Z,8.9
2019-05-17T00:19:09.926Z,8.8
2019-05-17T00:20:10.012Z,8.8
2019-05-17T00:21:10.037Z,8.8
2019-05-17T00:22:10.120Z,8.9
2019-05-17T00:23:10.201Z,8.9
2019-05-17T00:24:10.199Z,8.8
2019-05-17T00:25:10.266Z,8.7
2019-05-17T00:26:10.347Z,8.7
2019-05-17T00:27:10.638Z,8.8
2019-05-17T00:28:10.989Z,8.7
2019-05-17T00:29:11.338Z,8.7
2019-05-17T00:30:10.792Z,8.6
2019-05-17T00:31:10.859Z,8.6
2019-05-17T00:32:12.225Z,8.5
2019-05-17T00:33:12.160Z,8.6
2019-05-17T00:34:12.414Z,8.6
2019-05-17T00:35:12.107Z,8.8
2019-05-17T00:36:11.028Z,8.8
2019-05-17T00:37:10.977Z,8.9
2019-05-17T00:38:12.256Z,8.9
2019-05-17T00:39:11.106Z,8.8
2019-05-17T00:40:11.108Z,8.6
2019-05-17T00:41:11.164Z,8.7
2019-05-17T00:42:11.222Z,8.8
2019-05-17T00:43:11.292Z,8.8
2019-05-17T00:44:11.321Z,8.7
2019-05-17T00:45:11.375Z,8.8
2019-05-17T00:46:11.471Z,8.8
2019-05-17T00:47:11.530Z,8.7
2019-05-17T00:48:13.425Z,8.6
2019-05-17T00:49:11.654Z,8.7
2019-05-17T00:50:12.765Z,8.8
2019-05-17T00:51:11.756Z,8.6
2019-05-17T00:52:12.122Z,8.7
2019-05-17T00:53:12.358Z,8.8
2019-05-17T00:54:11.908Z,8.9
2019-05-17T00:55:12.110Z,8.8
2019-05-17T00:56:11.960Z,8.8
2019-05-17T00:57:12.028Z,8.8
2019-05-17T00:58:12.068Z,8.8
2019-05-17T00:59:12.128Z,8.8
2019-05-17T01:00:12.159Z,8.8
2019-05-17T01:01:12.234Z,8.9
2019-05-17T01:02:16.152Z,8.9
2019-05-17T01:03:13.086Z,8.9
2019-05-17T01:04:12.612Z,9
2019-05-17T01:05:12.492Z,9
2019-05-17T01:06:12.550Z,8.9
2019-05-17T01:07:12.664Z,8.9
2019-05-17T01:08:50.117Z,9
2019-05-17T01:09:40.463Z,8.9
2019-05-17T01:10:12.699Z,8.7
2019-05-17T01:11:12.768Z,8.7
2019-05-17T01:12:12.915Z,8.8
2019-05-17T01:13:12.950Z,8.9
2019-05-17T01:14:12.939Z,8.8
2019-05-17T01:15:13.068Z,9
2019-05-17T01:16:13.037Z,8.8
2019-05-17T01:17:13.067Z,8.8
2019-05-17T01:18:13.288Z,8.9
2019-05-17T01:19:13.395Z,8.8
2019-05-17T01:20:13.271Z,8.7
2019-05-17T01:21:13.300Z,8.7
2019-05-17T01:22:13.382Z,8.7
2019-05-17T01:23:13.406Z,8.6
2019-05-17T01:24:13.494Z,8.6
2019-05-17T01:25:13.568Z,8.7
2019-05-17T01:26:13.601Z,8.7
2019-05-17T01:27:13.640Z,8.6
2019-05-17T01:28:13.689Z,8.6
2019-05-17T01:29:13.802Z,8.6
2019-05-17T01:30:13.869Z,8.8
2019-05-17T01:31:14.068Z,8.9
2019-05-17T01:32:13.953Z,8.7
2019-05-17T01:33:14.210Z,8.6
2019-05-17T01:34:16.461Z,8.5
2019-05-17T01:35:16.479Z,8.3
2019-05-17T01:36:14.158Z,8.3
2019-05-17T01:37:14.257Z,8.3
2019-05-17T01:38:14.267Z,8.5
2019-05-17T01:39:18.559Z,8.5
2019-05-17T01:40:14.395Z,8.4
2019-05-17T01:41:14.477Z,8.5
2019-05-17T01:42:14.524Z,8.5
2019-05-17T01:43:16.295Z,8.4
2019-05-17T01:44:16.524Z,8.4
2019-05-17T01:45:16.603Z,8.4
2019-05-17T01:46:17.018Z,8.4
2019-05-17T01:47:16.614Z,8.3
2019-05-17T01:48:16.368Z,8.3
2019-05-17T01:49:16.415Z,8.3
2019-05-17T01:50:17.236Z,8.3
2019-05-17T01:51:16.875Z,8.3
2019-05-17T01:52:16.736Z,8.3
2019-05-17T01:53:16.566Z,8.4
2019-05-17T01:54:17.485Z,8.4
2019-05-17T01:55:17.358Z,8.3
2019-05-17T01:56:16.879Z,8.3
2019-05-17T01:57:16.800Z,8.3
2019-05-17T01:58:16.361Z,8.3
2019-05-17T01:59:17.245Z,8.4
2019-05-17T02:00:26.626Z,8.4
2019-05-17T02:01:16.934Z,8.5
2019-05-17T02:02:16.378Z,8.5
2019-05-17T02:03:17.295Z,8.5
2019-05-17T02:04:17.336Z,8.4
2019-05-17T02:05:17.240Z,8.4
2019-05-17T02:06:16.499Z,8.4
2019-05-17T02:07:17.249Z,8.4
2019-05-17T02:08:17.047Z,8.4
2019-05-17T02:09:25.046Z,8.4
2019-05-17T02:10:16.707Z,8.4
2019-05-17T02:11:18.346Z,8.5
2019-05-17T02:12:17.269Z,8.5
2019-05-17T02:13:16.496Z,8.4
2019-05-17T02:14:16.623Z,8.3
2019-05-17T02:15:16.621Z,8.3
2019-05-17T02:16:17.170Z,8.3
2019-05-17T02:17:17.394Z,8.4
2019-05-17T02:18:17.323Z,8.4
2019-05-17T02:19:17.393Z,8.4
2019-05-17T02:20:17.136Z,8.4
2019-05-17T02:21:16.897Z,8.3
2019-05-17T02:22:16.888Z,8.4
2019-05-17T02:23:17.367Z,8.4
2019-05-17T02:24:17.058Z,8.4
2019-05-17T02:25:17.025Z,8.7
2019-05-17T02:26:17.420Z,8.6
2019-05-17T02:27:16.989Z,8.4
2019-05-17T02:28:17.036Z,8.4
2019-05-17T02:29:17.062Z,8.3
2019-05-17T02:30:17.157Z,8.3
2019-05-17T02:31:17.177Z,8.4
2019-05-17T02:32:17.237Z,8.5
2019-05-17T02:33:17.301Z,8.5
2019-05-17T02:34:17.358Z,8.6
2019-05-17T02:35:17.455Z,8.6
2019-05-17T02:36:17.457Z,8.4
2019-05-17T02:37:17.525Z,8.3
2019-05-17T02:38:17.553Z,8.4
2019-05-17T02:39:17.603Z,8.3
2019-05-17T02:40:17.693Z,8.4
2019-05-17T02:41:17.766Z,8.4
2019-05-17T02:42:17.780Z,8.2
2019-05-17T02:43:17.856Z,8.2
2019-05-17T02:44:17.978Z,8.3
2019-05-17T02:45:17.984Z,8.2
2019-05-17T02:46:18.044Z,8.4
2019-05-17T02:47:18.137Z,8.5
2019-05-17T02:48:18.198Z,8.5
2019-05-17T02:49:18.218Z,8.4
2019-05-17T02:50:18.242Z,8.3
2019-05-17T02:51:18.285Z,8.2
2019-05-17T02:52:18.371Z,8.2
2019-05-17T02:53:18.419Z,8.3
2019-05-17T02:54:18.470Z,8.3
2019-05-17T02:55:18.526Z,8.4
2019-05-17T02:56:18.626Z,8.2
2019-05-17T02:57:18.683Z,8.3
2019-05-17T02:58:18.723Z,8.5
2019-05-17T02:59:18.763Z,8.4
2019-05-17T03:00:19.106Z,8.5
2019-05-17T03:01:19.129Z,8.4
2019-05-17T03:02:22.881Z,8.4
2019-05-17T03:03:19.053Z,8.4
2019-05-17T03:04:19.127Z,8.3
2019-05-17T03:05:19.134Z,8.2
2019-05-17T03:06:22.508Z,8.3
2019-05-17T03:07:19.220Z,8.5
2019-05-17T03:08:19.314Z,8.6
2019-05-17T03:09:22.630Z,8.5
2019-05-17T03:10:24.841Z,8.3
2019-05-17T03:11:22.349Z,8.2
2019-05-17T03:12:19.503Z,8.4
2019-05-17T03:13:19.566Z,8.5
2019-05-17T03:14:22.784Z,8.6
2019-05-17T03:15:23.076Z,8.3
2019-05-17T03:16:23.322Z,8.3
2019-05-17T03:17:22.685Z,8.2
2019-05-17T03:18:22.820Z,8.3
2019-05-17T03:19:23.324Z,8.4
2019-05-17T03:20:22.918Z,8.4
2019-05-17T03:21:22.744Z,8.3
2019-05-17T03:22:23.036Z,8.3
2019-05-17T03:23:23.188Z,8.5
2019-05-17T03:24:22.593Z,8.6
2019-05-17T03:25:23.607Z,8.5
2019-05-17T03:26:22.931Z,8.5
2019-05-17T03:27:23.234Z,8.4
2019-05-17T03:28:23.455Z,8.4
2019-05-17T03:29:22.635Z,8.4
2019-05-17T03:30:25.152Z,8.5
2019-05-17T03:31:25.623Z,8.4
2019-05-17T03:32:25.830Z,8.5
2019-05-17T03:33:25.805Z,8.5
2019-05-17T03:34:25.708Z,8.4
2019-05-17T03:35:25.634Z,8.5
2019-05-17T03:36:25.881Z,8.6
2019-05-17T03:37:25.830Z,8.6
2019-05-17T03:38:22.772Z,8.5
2019-05-17T03:39:22.642Z,8.3
2019-05-17T03:40:36.169Z,8.3
2019-05-17T03:41:27.799Z,8.3
2019-05-17T03:42:22.582Z,8.3
2019-05-17T03:43:22.565Z,8.6
2019-05-17T03:44:22.531Z,8.6
2019-05-17T03:45:22.782Z,8.5
2019-05-17T03:46:23.152Z,8.6
2019-05-17T03:47:22.653Z,8.7
2019-05-17T03:48:22.120Z,8.7
2019-05-17T03:49:22.272Z,8.6
2019-05-17T03:50:22.638Z,8.7
2019-05-17T03:51:23.219Z,8.6
2019-05-17T03:52:22.360Z,8.5
2019-05-17T03:53:22.811Z,8.5
2019-05-17T03:54:22.598Z,8.6
2019-05-17T03:55:23.449Z,8.7
2019-05-17T03:56:22.472Z,8.7
2019-05-17T03:57:23.849Z,8.7
2019-05-17T03:58:23.406Z,8.6
2019-05-17T03:59:24.181Z,8.5
2019-05-17T04:00:23.189Z,8.5
2019-05-17T04:01:23.127Z,8.3
2019-05-17T04:02:23.118Z,8.6
2019-05-17T04:03:23.001Z,8.5
2019-05-17T04:04:22.950Z,8.5
2019-05-17T04:05:22.863Z,8.4
2019-05-17T04:06:23.738Z,8.5
2019-05-17T04:07:25.687Z,8.6
2019-05-17T04:08:23.023Z,8.5
2019-05-17T04:09:22.722Z,8.5
2019-05-17T04:10:22.964Z,8.6
2019-05-17T04:11:31.283Z,8.6
2019-05-17T04:12:23.346Z,8.7
2019-05-17T04:13:23.583Z,8.7
2019-05-17T04:14:22.990Z,8.9
2019-05-17T04:15:23.907Z,8.8
2019-05-17T04:16:23.898Z,8.6
2019-05-17T04:17:23.154Z,8.6
2019-05-17T04:18:23.676Z,8.5
2019-05-17T04:19:23.281Z,8.5
2019-05-17T04:20:23.577Z,8.7
2019-05-17T04:21:23.749Z,8.7
2019-05-17T04:22:23.962Z,8.6
2019-05-17T04:23:23.811Z,8.4
2019-05-17T04:24:23.545Z,8.2
2019-05-17T04:25:23.904Z,8.4
2019-05-17T04:26:23.780Z,8.4
2019-05-17T04:27:23.664Z,8.5
2019-05-17T04:28:24.024Z,8.5
2019-05-17T04:29:23.956Z,8.4
2019-05-17T04:30:24.099Z,8.6
2019-05-17T04:31:24.076Z,8.4
2019-05-17T04:32:24.093Z,8.5
2019-05-17T04:33:24.111Z,8.8
2019-05-17T04:34:24.195Z,8.6
2019-05-17T04:35:24.188Z,8.5
2019-05-17T04:36:24.289Z,8.5
2019-05-17T04:37:24.297Z,8.7
2019-05-17T04:38:24.475Z,8.5
2019-05-17T04:39:24.524Z,8.5
2019-05-17T04:40:24.735Z,8.5
2019-05-17T04:41:39.178Z,8.4
2019-05-17T04:42:24.641Z,8.4
2019-05-17T04:43:24.676Z,8.5
2019-05-17T04:44:25.129Z,8.4
2019-05-17T04:45:25.237Z,8.4
2019-05-17T04:46:25.059Z,8.2
2019-05-17T04:47:24.915Z,8.3
2019-05-17T04:48:24.987Z,8.4
2019-05-17T04:49:25.072Z,8.5
2019-05-17T04:50:25.304Z,8.6
2019-05-17T04:51:25.121Z,8.5
2019-05-17T04:52:25.299Z,8.4
2019-05-17T04:53:27.109Z,8.3
2019-05-17T04:54:33.069Z,8.4
2019-05-17T04:55:34.055Z,8.3
2019-05-17T04:58:57.101Z,8.5
2019-05-17T05:00:12.867Z,8.5
2019-05-17T05:00:25.610Z,8.5
2019-05-17T05:01:25.697Z,8.5
2019-05-17T05:02:25.695Z,8.5
2019-05-17T05:03:25.775Z,8.3
2019-05-17T05:04:25.820Z,8.5
2019-05-17T05:05:25.907Z,8.6
2019-05-17T05:06:25.962Z,8.7
2019-05-17T05:07:26.074Z,8.7
2019-05-17T05:08:26.082Z,8.5
2019-05-17T05:09:26.135Z,8.5
2019-05-17T05:10:26.188Z,8.5
2019-05-17T05:11:26.362Z,8.4
2019-05-17T05:12:26.301Z,8.5
2019-05-17T05:13:26.373Z,8.5
2019-05-17T05:14:27.118Z,8.7
2019-05-17T05:15:26.398Z,8.7
2019-05-17T05:16:26.490Z,8.6
2019-05-17T05:17:26.550Z,8.4
2019-05-17T05:18:26.595Z,8.5
2019-05-17T05:19:26.639Z,8.5
2019-05-17T05:20:43.416Z,8.5
2019-05-17T05:22:08.407Z,8.7
2019-05-17T05:22:26.880Z,8.8
2019-05-17T05:23:27.511Z,8.8
2019-05-17T05:24:26.945Z,8.7
2019-05-17T05:25:28.574Z,8.6
2019-05-17T05:26:27.224Z,8.6
2019-05-17T05:27:28.992Z,8.4
2019-05-17T05:28:27.359Z,8.5
2019-05-17T05:29:27.865Z,8.8
2019-05-17T05:30:27.347Z,8.7
2019-05-17T05:31:29.369Z,8.7
2019-05-17T05:32:27.638Z,8.7
2019-05-17T05:33:29.616Z,8.8
2019-05-17T05:34:27.667Z,8.9
2019-05-17T05:35:27.956Z,8.8
2019-05-17T05:36:27.668Z,8.7
2019-05-17T05:37:28.321Z,8.5
2019-05-17T05:38:27.782Z,8.6
2019-05-17T05:39:28.322Z,8.6
2019-05-17T05:40:27.887Z,8.7
2019-05-17T05:41:31.848Z,8.8
2019-05-17T05:42:27.992Z,8.8
2019-05-17T05:43:28.442Z,8.8
2019-05-17T05:44:28.074Z,8.8
2019-05-17T05:45:29.008Z,8.7
2019-05-17T05:46:28.164Z,8.5
2019-05-17T05:47:29.278Z,8.5
2019-05-17T05:48:28.307Z,8.6
2019-05-17T05:49:28.343Z,8.8
2019-05-17T05:50:28.426Z,8.9
2019-05-17T05:51:31.974Z,8.9
2019-05-17T05:52:28.576Z,8.8
2019-05-17T05:53:28.720Z,8.8
2019-05-17T05:54:28.680Z,8.7
2019-05-17T05:55:31.954Z,8.7
2019-05-17T05:56:28.864Z,8.8
2019-05-17T05:57:29.273Z,8.8
2019-05-17T05:58:28.923Z,8.9
2019-05-17T05:59:31.683Z,8.9
2019-05-17T06:00:29.417Z,8.9
2019-05-17T06:01:29.535Z,9.1
2019-05-17T06:02:29.217Z,8.9
2019-05-17T06:03:31.602Z,8.8
2019-05-17T06:04:31.650Z,8.9
2019-05-17T06:05:32.340Z,8.9
2019-05-17T06:06:29.399Z,8.7
2019-05-17T06:07:29.425Z,8.8
2019-05-17T06:08:31.749Z,8.7
2019-05-17T06:09:31.446Z,8.8
2019-05-17T06:10:29.618Z,9
2019-05-17T06:11:31.813Z,9
2019-05-17T06:12:32.086Z,8.9
2019-05-17T06:13:32.340Z,9
2019-05-17T06:14:32.183Z,8.9
2019-05-17T06:15:31.924Z,8.7
2019-05-17T06:16:32.046Z,8.6
2019-05-17T06:17:31.749Z,8.9
2019-05-17T06:18:31.793Z,8.9
2019-05-17T06:19:31.489Z,9
2019-05-17T06:20:32.203Z,9
2019-05-17T06:21:31.908Z,8.7
2019-05-17T06:22:32.436Z,8.7
2019-05-17T06:23:31.524Z,8.6
2019-05-17T06:24:31.890Z,8.5
2019-05-17T06:25:34.010Z,8.7
2019-05-17T06:26:31.494Z,9
2019-05-17T06:27:32.074Z,8.9
2019-05-17T06:28:31.838Z,9
2019-05-17T06:29:35.243Z,9
2019-05-17T06:30:32.344Z,9
2019-05-17T06:31:33.256Z,8.9
2019-05-17T06:32:31.644Z,8.9
2019-05-17T06:33:34.517Z,8.9
2019-05-17T06:34:32.752Z,8.9
2019-05-17T06:35:32.507Z,8.8
2019-05-17T06:36:32.809Z,8.8
2019-05-17T06:37:31.727Z,8.8
2019-05-17T06:38:32.804Z,8.8
2019-05-17T06:39:32.793Z,8.7
2019-05-17T06:40:32.286Z,8.9
2019-05-17T06:41:32.282Z,8.9
2019-05-17T06:42:40.236Z,8.8
2019-05-17T06:43:32.214Z,8.8
2019-05-17T06:44:32.437Z,8.7
2019-05-17T06:45:32.574Z,8.9
2019-05-17T06:46:32.439Z,8.8
2019-05-17T06:47:32.795Z,8.9
2019-05-17T06:48:32.052Z,8.9
2019-05-17T06:49:31.940Z,9.1
2019-05-17T06:50:32.706Z,9
2019-05-17T06:51:32.536Z,8.8
2019-05-17T06:52:32.619Z,8.8
2019-05-17T06:53:32.443Z,8.9
2019-05-17T06:54:33.062Z,8.9
2019-05-17T06:55:32.230Z,9
2019-05-17T06:56:32.350Z,8.9
2019-05-17T06:57:32.605Z,8.9
2019-05-17T06:58:32.403Z,9
2019-05-17T06:59:32.963Z,8.9
2019-05-17T07:00:32.564Z,8.9
2019-05-17T07:01:32.887Z,8.8
2019-05-17T07:02:35.525Z,8.8
2019-05-17T07:03:32.718Z,8.9
2019-05-17T07:04:32.692Z,9
2019-05-17T07:05:33.234Z,9
2019-05-17T07:06:32.796Z,9.1
2019-05-17T07:07:33.521Z,9
2019-05-17T07:08:32.890Z,9
2019-05-17T07:09:35.895Z,9.1
2019-05-17T07:10:33.041Z,9.2
2019-05-17T07:11:33.710Z,9.1
2019-05-17T07:12:33.080Z,9.2
2019-05-17T07:13:33.599Z,9.3
2019-05-17T07:14:33.185Z,9.2
2019-05-17T07:15:43.609Z,9.1
2019-05-17T07:16:39.624Z,9.1
2019-05-17T07:17:33.318Z,9.1
2019-05-17T07:18:33.387Z,9.1
2019-05-17T07:19:33.592Z,9.1
2019-05-17T07:20:33.527Z,9
2019-05-17T07:21:34.817Z,9.1
2019-05-17T07:22:33.692Z,9
2019-05-17T07:23:33.695Z,9.1
2019-05-17T07:24:33.775Z,9.1
2019-05-17T07:25:33.842Z,9.2
2019-05-17T07:26:33.920Z,9.2
2019-05-17T07:27:41.218Z,9.2
2019-05-17T07:28:34.026Z,9.1
2019-05-17T07:29:34.067Z,9
2019-05-17T07:30:34.476Z,9.1
2019-05-17T07:31:34.294Z,9.1
2019-05-17T07:32:34.280Z,9.2
2019-05-17T07:33:34.300Z,9.2
2019-05-17T07:34:34.363Z,9.3
2019-05-17T07:35:34.426Z,9.2
2019-05-17T07:36:34.528Z,9
2019-05-17T07:37:34.579Z,9.1
2019-05-17T07:38:34.608Z,9.2
2019-05-17T07:39:34.675Z,9.3
2019-05-17T07:40:34.950Z,9.1
2019-05-17T07:41:34.852Z,9
2019-05-17T07:42:35.091Z,9
2019-05-17T07:43:35.094Z,8.9
2019-05-17T07:44:35.153Z,8.9
2019-05-17T07:45:35.395Z,9.1
2019-05-17T07:46:35.107Z,9.3
2019-05-17T07:47:35.293Z,9.2
2019-05-17T07:48:35.222Z,9.1
2019-05-17T07:49:35.312Z,9
2019-05-17T07:50:35.372Z,9
2019-05-17T07:51:35.451Z,9.1
2019-05-17T07:52:35.455Z,9
2019-05-17T07:53:35.515Z,9.1
2019-05-17T07:54:35.546Z,9.2
2019-05-17T07:55:35.635Z,9.2
2019-05-17T07:56:35.725Z,9.1
2019-05-17T07:57:35.758Z,8.9
2019-05-17T07:58:35.807Z,8.9
2019-05-17T07:59:35.942Z,9
2019-05-17T08:00:35.898Z,9.1
2019-05-17T08:01:35.949Z,9.1
2019-05-17T08:02:36.016Z,9.2
2019-05-17T08:03:36.133Z,9.3
2019-05-17T08:04:36.154Z,9.3
2019-05-17T08:05:36.210Z,9.3
2019-05-17T08:06:36.286Z,9.2
2019-05-17T08:07:39.569Z,9.1
2019-05-17T08:08:36.370Z,9.1
2019-05-17T08:09:36.753Z,9.3
2019-05-17T08:10:36.523Z,9.3
2019-05-17T08:11:36.874Z,9.2
2019-05-17T08:12:36.562Z,9.1
2019-05-17T08:13:36.710Z,9.1
2019-05-17T08:14:36.701Z,9.1
2019-05-17T08:15:39.510Z,9.2
2019-05-17T08:16:36.788Z,9.3
2019-05-17T08:17:39.471Z,9.3
2019-05-17T08:18:36.899Z,9.5
2019-05-17T08:19:37.002Z,9.4
2019-05-17T08:20:37.063Z,9.4
2019-05-17T08:21:39.593Z,9.5
2019-05-17T08:22:39.525Z,9.4
2019-05-17T08:23:39.827Z,9.5
2019-05-17T08:24:37.752Z,9.5
2019-05-17T08:25:49.396Z,9.5
2019-05-17T08:26:37.406Z,9.4
2019-05-17T08:27:40.181Z,9.3
2019-05-17T08:28:37.491Z,9.4
2019-05-17T08:29:37.591Z,9.4
2019-05-17T08:30:40.542Z,9.5
2019-05-17T08:31:37.678Z,9.5
2019-05-17T08:32:39.981Z,9.5
2019-05-17T08:33:37.783Z,9.5
2019-05-17T08:34:39.950Z,9.5
2019-05-17T08:35:40.008Z,9.6
2019-05-17T08:36:40.286Z,9.6
2019-05-17T08:37:41.831Z,9.7
2019-05-17T08:38:39.305Z,9.8
2019-05-17T08:39:39.943Z,9.9
2019-05-17T08:40:40.321Z,9.8
2019-05-17T08:41:40.382Z,9.6
2019-05-17T08:42:40.515Z,9.6
2019-05-17T08:43:46.065Z,9.7
2019-05-17T08:44:39.331Z,9.6
2019-05-17T08:45:40.572Z,9.5
2019-05-17T08:46:39.483Z,9.5
2019-05-17T08:47:39.584Z,9.6
2019-05-17T08:48:40.109Z,9.7
2019-05-17T08:49:40.276Z,9.7
2019-05-17T08:50:40.216Z,9.5
2019-05-17T08:51:39.634Z,9.5
2019-05-17T08:52:40.199Z,9.4
2019-05-17T08:53:39.853Z,9.5
2019-05-17T08:54:42.618Z,9.6
2019-05-17T08:55:40.779Z,9.6
2019-05-17T08:56:40.165Z,9.6
2019-05-17T08:57:39.924Z,9.7
2019-05-17T08:58:40.294Z,9.7
2019-05-17T08:59:40.383Z,9.6
2019-05-17T09:00:40.427Z,9.5
2019-05-17T09:01:41.682Z,9.4
2019-05-17T09:02:40.738Z,9.5
2019-05-17T09:03:41.169Z,9.5
2019-05-17T09:04:40.467Z,9.6
2019-05-17T09:05:41.633Z,9.7
2019-05-17T09:06:39.895Z,9.9
2019-05-17T09:07:40.322Z,10
2019-05-17T09:08:40.491Z,9.8
2019-05-17T09:09:39.918Z,9.8
2019-05-17T09:10:40.703Z,9.8
2019-05-17T09:11:40.070Z,9.7
2019-05-17T09:12:40.821Z,9.7
2019-05-17T09:13:53.390Z,9.9
2019-05-17T09:14:40.246Z,9.9
2019-05-17T09:15:40.325Z,9.8
2019-05-17T09:16:40.338Z,9.9
2019-05-17T09:17:40.384Z,9.9
2019-05-17T09:18:40.386Z,10
2019-05-17T09:19:40.503Z,10.1
2019-05-17T09:20:41.006Z,10.1
2019-05-17T09:21:40.606Z,10.1
2019-05-17T09:22:40.637Z,10
2019-05-17T09:23:41.032Z,9.9
2019-05-17T09:24:40.829Z,10
2019-05-17T09:25:41.189Z,10.2
2019-05-17T09:26:40.894Z,10.2
2019-05-17T09:27:40.931Z,10.2
2019-05-17T09:28:40.962Z,10.2
2019-05-17T09:29:41.119Z,10.2
2019-05-17T09:30:41.063Z,10.1
2019-05-17T09:31:42.137Z,10.2
2019-05-17T09:32:41.528Z,10.4
2019-05-17T09:33:41.189Z,10.3
2019-05-17T09:34:41.969Z,10.1
2019-05-17T09:35:41.658Z,10.2
2019-05-17T09:36:41.395Z,10.3
2019-05-17T09:37:41.829Z,10.2
2019-05-17T09:38:41.659Z,10.2
2019-05-17T09:39:41.815Z,10.3
2019-05-17T09:40:41.635Z,10.3
2019-05-17T09:41:41.714Z,10.3
2019-05-17T09:42:41.684Z,10.1
2019-05-17T09:43:41.694Z,10.2
2019-05-17T09:44:41.812Z,10.4
2019-05-17T09:45:41.810Z,10.4
2019-05-17T09:46:41.901Z,10.3
2019-05-17T09:47:41.950Z,10.2
2019-05-17T09:48:41.998Z,10.3
2019-05-17T09:49:42.077Z,10.4
2019-05-17T09:50:42.126Z,10.5
2019-05-17T09:51:42.262Z,10.6
2019-05-17T09:52:42.241Z,10.6
2019-05-17T09:53:42.289Z,10.5
2019-05-17T09:54:45.380Z,10.5
2019-05-17T09:55:42.428Z,10.7
2019-05-17T09:56:42.500Z,10.7
2019-05-17T09:57:42.537Z,10.6
2019-05-17T09:58:42.600Z,10.5
2019-05-17T09:59:42.670Z,10.5
2019-05-17T10:00:42.682Z,10.6
2019-05-17T10:01:42.774Z,10.6
2019-05-17T10:02:43.055Z,10.5
2019-05-17T10:03:42.884Z,10.6
2019-05-17T10:04:42.945Z,10.6
2019-05-17T10:05:42.984Z,10.6
2019-05-17T10:06:43.158Z,10.6
2019-05-17T10:07:43.103Z,10.7
2019-05-17T10:08:43.176Z,10.8
2019-05-17T10:09:43.229Z,11
2019-05-17T10:10:43.337Z,11.1
2019-05-17T10:11:43.345Z,11.2
2019-05-17T10:12:43.427Z,10.9
2019-05-17T10:13:43.475Z,10.9
2019-05-17T10:14:43.523Z,11.1
2019-05-17T10:15:43.564Z,11.1
2019-05-17T10:16:43.660Z,11.1
2019-05-17T10:17:43.648Z,11
2019-05-17T10:18:43.740Z,11
2019-05-17T10:19:43.777Z,11
2019-05-17T10:20:43.826Z,11
2019-05-17T10:21:43.909Z,10.9
2019-05-17T10:22:43.933Z,10.9
2019-05-17T10:23:44.029Z,11.1
2019-05-17T10:24:44.039Z,11.1
2019-05-17T10:25:44.086Z,10.9
2019-05-17T10:26:44.177Z,11
2019-05-17T10:27:44.232Z,10.9
2019-05-17T10:28:44.285Z,10.9
2019-05-17T10:29:44.331Z,11
2019-05-17T10:30:44.417Z,10.9
2019-05-17T10:31:44.452Z,10.9
2019-05-17T10:32:44.514Z,10.8
2019-05-17T10:33:44.583Z,10.9
2019-05-17T10:34:44.630Z,11
2019-05-17T10:35:44.672Z,11
2019-05-17T10:36:59.997Z,11.1
2019-05-17T10:37:44.794Z,11.1
2019-05-17T10:38:44.842Z,11.1
2019-05-17T10:39:44.871Z,10.9
2019-05-17T10:40:44.934Z,11
2019-05-17T10:41:44.993Z,11.1
2019-05-17T10:42:45.068Z,11.3
2019-05-17T10:43:45.066Z,11.3
2019-05-17T10:44:47.707Z,11.2
2019-05-17T10:45:45.209Z,11.2
2019-05-17T10:46:45.245Z,11.2
2019-05-17T10:47:45.339Z,11.2
2019-05-17T10:48:50.009Z,11.1
2019-05-17T10:48:50.009Z,11.1
2019-05-17T10:49:46.463Z,11.2
2019-05-17T10:50:45.924Z,11.2
2019-05-17T10:51:45.977Z,11.2
2019-05-17T10:52:45.711Z,11.3
2019-05-17T10:53:47.103Z,11.3
2019-05-17T10:54:46.115Z,11.3
2019-05-17T10:55:46.390Z,11.3
2019-05-17T10:56:45.801Z,11.4
2019-05-17T10:57:45.829Z,11.4
2019-05-17T10:58:49.299Z,11.4
2019-05-17T10:59:46.063Z,11.4
2019-05-17T11:00:46.801Z,11.4
2019-05-17T11:01:46.018Z,11.4
2019-05-17T11:02:46.462Z,11.6
2019-05-17T11:03:46.228Z,11.7
2019-05-17T11:04:47.028Z,11.6
2019-05-17T11:05:46.296Z,11.6
2019-05-17T11:06:47.035Z,11.6
2019-05-17T11:07:46.374Z,11.6
2019-05-17T11:08:47.263Z,11.7
2019-05-17T11:09:46.488Z,11.7
2019-05-17T11:10:47.405Z,11.6
2019-05-17T11:11:46.644Z,11.6
2019-05-17T11:12:47.525Z,11.6
2019-05-17T11:13:46.674Z,11.6
2019-05-17T11:14:52.458Z,11.7
2019-05-17T11:15:46.794Z,11.6
2019-05-17T11:16:47.524Z,11.4
2019-05-17T11:17:46.969Z,11.4
2019-05-17T11:18:48.651Z,11.4
2019-05-17T11:19:47.043Z,11.4
2019-05-17T11:20:47.870Z,11.4
2019-05-17T11:21:48.703Z,11.5
2019-05-17T11:22:47.577Z,11.5
2019-05-17T11:23:47.284Z,11.5
2019-05-17T11:24:47.962Z,11.4
2019-05-17T11:25:47.364Z,11.5
2019-05-17T11:26:48.284Z,11.5
2019-05-17T11:27:47.491Z,11.6
2019-05-17T11:28:48.370Z,11.6
2019-05-17T11:29:47.627Z,11.6
2019-05-17T11:30:48.065Z,11.6
2019-05-17T11:31:47.774Z,11.6
2019-05-17T11:32:48.571Z,11.7
2019-05-17T11:33:47.830Z,11.8
2019-05-17T11:34:49.116Z,11.9
2019-05-17T11:35:48.309Z,11.8
2019-05-17T11:36:48.074Z,11.9
2019-05-17T11:37:48.288Z,11.8
2019-05-17T11:38:49.110Z,11.8
2019-05-17T11:39:48.161Z,11.9
2019-05-17T11:40:49.928Z,11.8
2019-05-17T11:41:48.282Z,11.8
2019-05-17T11:42:48.301Z,11.7
2019-05-17T11:43:48.386Z,11.7
2019-05-17T11:44:48.776Z,11.8
2019-05-17T11:45:48.721Z,11.8
2019-05-17T11:46:48.584Z,11.9
2019-05-17T11:47:48.573Z,11.9
2019-05-17T11:48:50.280Z,11.9
2019-05-17T11:49:50.041Z,12
2019-05-17T11:50:54.980Z,12
2019-05-17T11:54:36.116Z,11.9
2019-05-17T11:54:57.147Z,11.8
2019-05-17T11:55:49.052Z,11.8
2019-05-17T11:56:49.295Z,11.9
2019-05-17T11:57:49.294Z,11.8
2019-05-17T11:58:49.184Z,11.8
2019-05-17T11:59:49.260Z,11.9
2019-05-17T12:00:49.252Z,11.8
2019-05-17T12:01:49.307Z,11.9
2019-05-17T12:02:49.450Z,11.9
2019-05-17T12:03:49.415Z,11.9
2019-05-17T12:04:57.883Z,12
2019-05-17T12:05:54.879Z,11.8
2019-05-17T12:06:50.762Z,11.8
2019-05-17T12:07:49.620Z,11.9
2019-05-17T12:08:49.697Z,12
2019-05-17T12:10:33.371Z,12
2019-05-17T12:10:49.899Z,12
2019-05-17T12:11:49.828Z,12
2019-05-17T12:13:31.350Z,12.1
2019-05-17T12:14:02.038Z,12.4
2019-05-17T12:14:50.078Z,12.4
2019-05-17T12:15:50.115Z,12.5
2019-05-17T12:16:50.176Z,12.6
2019-05-17T12:17:50.238Z,12.6
2019-05-17T12:18:50.292Z,12.7
2019-05-17T12:19:50.331Z,12.7
2019-05-17T12:20:50.385Z,12.9
2019-05-17T12:21:50.563Z,12.9
2019-05-17T12:22:50.481Z,12.9
2019-05-17T12:23:50.582Z,13
2019-05-17T12:24:50.591Z,13.2
2019-05-17T12:25:50.685Z,13.3
2019-05-17T12:26:50.671Z,13.4
2019-05-17T12:27:50.753Z,13.5
2019-05-17T12:28:50.790Z,13.6
2019-05-17T12:29:50.835Z,13.6
2019-05-17T12:30:50.967Z,13.7
2019-05-17T12:31:50.988Z,13.5
2019-05-17T12:32:51.161Z,13.6
2019-05-17T12:33:51.137Z,13.6
2019-05-17T12:34:51.120Z,13.6
2019-05-17T12:35:51.186Z,13.9
2019-05-17T12:36:51.237Z,14.1
2019-05-17T12:37:51.274Z,14.2
2019-05-17T12:38:51.315Z,14
2019-05-17T12:39:51.402Z,14
2019-05-17T12:40:51.506Z,13.9
2019-05-17T12:41:51.573Z,13.9
2019-05-17T12:42:51.631Z,14.2
2019-05-17T12:43:51.810Z,14.3
2019-05-17T12:44:51.766Z,14.2
2019-05-17T12:45:59.914Z,14.2
2019-05-17T12:46:52.086Z,14.1
2019-05-17T12:47:52.027Z,14.2
2019-05-17T12:48:52.093Z,14.1
2019-05-17T12:49:52.031Z,14.1
2019-05-17T12:50:52.093Z,14.1
2019-05-17T12:51:52.171Z,14.1
2019-05-17T12:52:52.312Z,14.2
2019-05-17T12:53:52.305Z,14.2
2019-05-17T12:54:52.374Z,14.4
2019-05-17T12:55:52.455Z,14.5
2019-05-17T12:56:52.500Z,14.3
2019-05-17T12:57:52.557Z,14.2
2019-05-17T12:58:52.630Z,14.2
2019-05-17T12:59:52.678Z,14.2
2019-05-17T13:00:52.706Z,14.5
2019-05-17T13:01:52.775Z,14.6
2019-05-17T13:02:52.838Z,14.7
2019-05-17T13:03:52.865Z,14.6
2019-05-17T13:04:52.938Z,14.8
2019-05-17T13:05:52.982Z,14.8
2019-05-17T13:06:53.008Z,14.8
2019-05-17T13:07:53.116Z,14.8
2019-05-17T13:08:53.172Z,14.7
2019-05-17T13:09:53.256Z,14.5
2019-05-17T13:10:53.281Z,14.4
2019-05-17T13:11:53.337Z,14.2
2019-05-17T13:12:58.387Z,22.1
2019-05-17T13:13:53.487Z,14.4
2019-05-17T13:14:53.440Z,14.7
2019-05-17T13:15:53.530Z,15
2019-05-17T13:16:53.556Z,15.3
2019-05-17T13:17:53.591Z,15.6
2019-05-17T13:18:53.723Z,23.3
2019-05-17T13:19:53.778Z,15.4
2019-05-17T13:20:53.785Z,22.8
2019-05-17T13:21:53.827Z,14.6
2019-05-17T13:22:53.962Z,14.5
2019-05-17T13:23:53.954Z,14.6
2019-05-17T13:24:54.072Z,14.7
2019-05-17T13:25:54.061Z,14.5
2019-05-17T13:26:55.842Z,14.6
2019-05-17T13:27:59.669Z,22.5
2019-05-17T13:28:59.223Z,14.8
2019-05-17T13:30:01.210Z,14.7
2019-05-17T13:30:57.434Z,14.6
2019-05-17T13:32:04.981Z,14.5
2019-05-17T13:33:15.979Z,14.5
2019-05-17T13:34:06.635Z,14.7
2019-05-17T13:34:19.519Z,14.7
2019-05-17T13:35:06.000Z,14.8
2019-05-17T13:36:11.184Z,14.7
2019-05-17T13:37:04.892Z,14.6
2019-05-17T13:38:09.643Z,14.4
2019-05-17T13:38:58.781Z,14.4
2019-05-17T13:39:57.769Z,14.6
2019-05-17T13:40:54.900Z,14.8
2019-05-17T13:41:55.753Z,14.9
2019-05-17T13:42:55.046Z,15.2
2019-05-17T13:43:55.175Z,15.4